Knoxville, IA

4:19 AM CDT on October 18, 2017 (GMT -0500)
Knoxville Municipal

Weather History for KOXV - March, 2014

Change the Weather History Date:

Saturday, March 22, 2014

  Actual Average Record
Temperature  
Mean Temperature 28 °F -  
Max Temperature 33 °F 53 °F 83 °F (1988)
Min Temperature 23 °F 29 °F 12 °F (2002)
Degree Days  
Heating Degree Days 37    
Moisture  
Dew Point 14 °F    
Average Humidity 56    
Maximum Humidity 75    
Minimum Humidity 35    
Precipitation  
Precipitation 0.00 in - - ()
Sea Level Pressure  
Sea Level Pressure 30.31 in    
Wind  
Wind Speed 17 mph (NNW)    
Max Wind Speed 23 mph    
Max Gust Speed 33 mph    
Visibility 10 miles    
Events      
Averages and records for this station are not official NWS values.
T = Trace of Precipitation, MM = Missing Value Source: NWS Daily Summary

Daily Weather History Graph

Daily Weather History Graph

Search for Another Location

Airport or City:

Trip Planner

Search our weather history database for the weather conditions in past years. The results will help you decide how hot, cold, wet, or windy it might be!

Date:

Astronomy

Mar. 22, 2014 Rise Set
Actual Time 7:12 AM CDT 7:26 PM CDT
Civil Twilight 6:44 AM CDT 7:54 PM CDT
Nautical Twilight 6:12 AM CDT 8:26 PM CDT
Astronomical Twilight 5:39 AM CDT 8:59 PM CDT
Moon 12:49 AM CDT (3/22) 10:53 AM CDT (3/22)
Length of Visible Light 13h 09m
Length of Day
12h 14m
Waning Gibbous, 65% of the Moon is Illuminated
Mar 22
Waning Gibbous
Mar 23
Last Quarter
Mar 30
New
Apr 7
First Quarter
Apr 15
Full

Hourly Weather History & Observations

Time (CDT) Temp. Windchill Dew Point Humidity Pressure Visibility Wind Dir Wind Speed Gust Speed Precip Events Conditions
12:15 AM 32.0 °F 20.1 °F 24.8 °F 75% 30.13 in 10.0 mi NNW 19.6 mph 27.6 mph N/A   Overcast
12:35 AM 32.0 °F 20.5 °F 23.0 °F 69% 30.13 in 10.0 mi NNW 18.4 mph 33.4 mph N/A   Overcast
12:55 AM 32.0 °F 20.5 °F 24.8 °F 75% 30.14 in 10.0 mi NW 18.4 mph 25.3 mph N/A   Overcast
1:15 AM 32.0 °F 20.5 °F 23.0 °F 69% 30.15 in 10.0 mi NNW 18.4 mph 24.2 mph N/A   Overcast
1:35 AM 32.0 °F 20.1 °F 23.0 °F 69% 30.15 in 10.0 mi North 19.6 mph 25.3 mph N/A   Overcast
1:55 AM 32.0 °F 20.1 °F 23.0 °F 69% 30.16 in 10.0 mi NNW 19.6 mph 27.6 mph N/A   Overcast
2:15 AM 30.2 °F 19.3 °F 23.0 °F 75% 30.17 in 10.0 mi NNW 15.0 mph 23.0 mph N/A   Overcast
2:35 AM 30.2 °F 18.5 °F 21.2 °F 69% 30.17 in 10.0 mi NNW 17.3 mph 25.3 mph N/A   Overcast
2:55 AM 28.4 °F 17.0 °F 21.2 °F 74% 30.18 in 10.0 mi NNW 15.0 mph 21.9 mph N/A   Mostly Cloudy
3:15 AM 28.4 °F 16.2 °F 19.4 °F 69% 30.18 in 10.0 mi NW 17.3 mph - N/A   Mostly Cloudy
3:35 AM 26.6 °F 14.7 °F 19.4 °F 74% 30.19 in 10.0 mi NNW 15.0 mph - N/A   Partly Cloudy
3:55 AM 26.6 °F 15.2 °F 17.6 °F 69% 30.19 in 10.0 mi NNW 13.8 mph - N/A   Clear
4:15 AM 24.8 °F 11.1 °F 17.6 °F 74% 30.20 in 10.0 mi NW 18.4 mph - N/A   Clear
4:35 AM 24.8 °F 12.9 °F 17.6 °F 74% 30.21 in 10.0 mi NW 13.8 mph - N/A   Clear
4:55 AM 24.8 °F 12.9 °F 17.6 °F 74% 30.22 in 10.0 mi NW 13.8 mph - N/A   Scattered Clouds
5:15 AM 24.8 °F 11.9 °F 15.8 °F 69% 30.22 in 10.0 mi NW 16.1 mph - N/A   Partly Cloudy
5:35 AM 24.8 °F 13.4 °F 15.8 °F 69% 30.23 in 10.0 mi NNW 12.7 mph 20.7 mph N/A   Clear
5:55 AM 24.8 °F 12.9 °F 15.8 °F 69% 30.25 in 10.0 mi NW 13.8 mph 23.0 mph N/A   Clear
6:15 AM 23.0 °F 10.6 °F 14.0 °F 68% 30.25 in 10.0 mi NW 13.8 mph 20.7 mph N/A   Clear
6:35 AM 23.0 °F 8.0 °F 14.0 °F 68% 30.25 in 10.0 mi NNW 20.7 mph 27.6 mph N/A   Clear
6:55 AM 23.0 °F 10.1 °F 12.2 °F 63% 30.25 in 10.0 mi NNW 15.0 mph 24.2 mph N/A   Clear
7:15 AM 23.0 °F 11.1 °F 14.0 °F 68% 30.27 in 10.0 mi NW 12.7 mph - N/A   Partly Cloudy
7:35 AM 23.0 °F 8.7 °F 12.2 °F 63% 30.27 in 10.0 mi NNW 18.4 mph 26.5 mph N/A   Clear
7:55 AM 23.0 °F 9.2 °F 12.2 °F 63% 30.29 in 10.0 mi NNW 17.3 mph - N/A   Clear
8:15 AM 23.0 °F 8.7 °F 12.2 °F 63% 30.29 in 10.0 mi NNW 18.4 mph - N/A   Clear
8:35 AM 23.0 °F 9.6 °F 12.2 °F 63% 30.30 in 10.0 mi NNW 16.1 mph 24.2 mph N/A   Clear
8:55 AM 23.0 °F 10.6 °F 12.2 °F 63% 30.31 in 10.0 mi NNW 13.8 mph 20.7 mph N/A   Clear
9:15 AM 23.0 °F 9.2 °F 12.2 °F 63% 30.32 in 10.0 mi NNW 17.3 mph 24.2 mph N/A   Clear
9:35 AM 24.8 °F 11.1 °F 12.2 °F 59% 30.32 in 10.0 mi NNW 18.4 mph 24.2 mph N/A   Clear
9:55 AM 24.8 °F 10.7 °F 12.2 °F 59% 30.33 in 10.0 mi NNW 19.6 mph 25.3 mph N/A   Clear
10:15 AM 24.8 °F 11.5 °F 12.2 °F 59% 30.33 in 10.0 mi NNW 17.3 mph - N/A   Clear
10:35 AM 26.6 °F 13.4 °F 12.2 °F 55% 30.34 in 10.0 mi NNW 18.4 mph - N/A   Clear
10:55 AM 26.6 °F 13.1 °F 12.2 °F 55% 30.34 in 10.0 mi NNW 19.6 mph - N/A   Clear
11:15 AM 28.4 °F 16.6 °F 12.2 °F 51% 30.34 in 10.0 mi North 16.1 mph - N/A   Clear
11:35 AM 28.4 °F 16.6 °F 12.2 °F 51% 30.34 in 10.0 mi NNW 16.1 mph - N/A   Clear
11:55 AM 28.4 °F 16.6 °F 10.4 °F 47% 30.35 in 10.0 mi North 16.1 mph 24.2 mph N/A   Clear
12:15 PM 30.2 °F 20.2 °F 10.4 °F 44% 30.35 in 10.0 mi NNW 12.7 mph 21.9 mph N/A   Clear
12:35 PM 30.2 °F 19.3 °F 10.4 °F 44% 30.36 in 10.0 mi NNW 15.0 mph 24.2 mph N/A   Clear
12:55 PM 32.0 °F 20.5 °F 10.4 °F 41% 30.36 in 10.0 mi NNW 18.4 mph 24.2 mph N/A   Clear
1:15 PM 32.0 °F 21.6 °F 10.4 °F 41% 30.35 in 10.0 mi North 15.0 mph 21.9 mph N/A   Clear
1:35 PM 32.0 °F 21.6 °F 10.4 °F 41% 30.35 in 10.0 mi NNW 15.0 mph 23.0 mph N/A   Clear
1:55 PM 33.8 °F 23.5 °F 10.4 °F 38% 30.34 in 10.0 mi North 16.1 mph 25.3 mph N/A   Clear
2:15 PM 33.8 °F 24.3 °F 8.6 °F 35% 30.34 in 10.0 mi North 13.8 mph 25.3 mph N/A   Clear
2:35 PM 32.0 °F 20.8 °F 10.4 °F 41% 30.34 in 10.0 mi NNW 17.3 mph 23.0 mph N/A   Scattered Clouds
2:55 PM 33.8 °F 21.6 °F 8.6 °F 35% 30.34 in 10.0 mi NNW 23.0 mph 28.8 mph N/A   Scattered Clouds
3:15 PM 33.8 °F 23.5 °F 10.4 °F 38% 30.34 in 10.0 mi NNW 16.1 mph 21.9 mph N/A   Partly Cloudy
3:35 PM 32.0 °F 19.8 °F 10.4 °F 41% 30.34 in 10.0 mi NNW 20.7 mph - N/A   Partly Cloudy
3:55 PM 33.8 °F 23.2 °F 10.4 °F 38% 30.34 in 10.0 mi NNW 17.3 mph 23.0 mph N/A   Partly Cloudy
4:15 PM 32.0 °F 21.2 °F 10.4 °F 41% 30.35 in 10.0 mi NNW 16.1 mph 23.0 mph N/A   Clear
4:35 PM 32.0 °F 19.8 °F 10.4 °F 41% 30.35 in 10.0 mi NNW 20.7 mph - N/A   Clear
4:55 PM 32.0 °F 20.1 °F 10.4 °F 41% 30.35 in 10.0 mi North 19.6 mph - N/A   Clear
5:15 PM 32.0 °F 20.5 °F 10.4 °F 41% 30.35 in 10.0 mi North 18.4 mph 25.3 mph N/A   Clear
5:35 PM 30.2 °F 18.5 °F 10.4 °F 44% 30.35 in 10.0 mi North 17.3 mph 25.3 mph N/A   Clear
5:55 PM 30.2 °F 19.3 °F 12.2 °F 47% 30.35 in 10.0 mi North 15.0 mph 25.3 mph N/A   Clear
6:15 PM 30.2 °F 19.3 °F 12.2 °F 47% 30.35 in 10.0 mi North 15.0 mph - N/A   Clear
6:35 PM 28.4 °F 17.0 °F 10.4 °F 47% 30.36 in 10.0 mi North 15.0 mph 23.0 mph N/A   Clear
6:55 PM 28.4 °F 16.6 °F 12.2 °F 51% 30.36 in 10.0 mi North 16.1 mph 21.9 mph N/A   Clear
7:15 PM 28.4 °F 17.5 °F 12.2 °F 51% 30.37 in 10.0 mi NNW 13.8 mph 20.7 mph N/A   Mostly Cloudy
7:35 PM 28.4 °F 18.0 °F 12.2 °F 51% 30.38 in 10.0 mi NNW 12.7 mph 19.6 mph N/A   Overcast
7:55 PM 28.4 °F 18.0 °F 12.2 °F 51% 30.39 in 10.0 mi NNW 12.7 mph 18.4 mph N/A   Overcast
8:15 PM 28.4 °F 18.0 °F 12.2 °F 51% 30.40 in 10.0 mi NNW 12.7 mph - N/A   Overcast
8:35 PM 26.6 °F 14.3 °F 12.2 °F 55% 30.40 in 10.0 mi NNW 16.1 mph 23.0 mph N/A   Overcast
8:55 PM 26.6 °F 14.3 °F 12.2 °F 55% 30.41 in 10.0 mi NNW 16.1 mph - N/A   Overcast
9:15 PM 26.6 °F 15.2 °F 12.2 °F 55% 30.41 in 10.0 mi North 13.8 mph - N/A   Overcast
9:35 PM 26.6 °F 15.7 °F 12.2 °F 55% 30.41 in 10.0 mi North 12.7 mph 18.4 mph N/A   Overcast
9:55 PM 26.6 °F 16.8 °F 12.2 °F 55% 30.43 in 10.0 mi North 10.4 mph 17.3 mph N/A   Overcast
10:15 PM 26.6 °F 15.7 °F 12.2 °F 55% 30.43 in 10.0 mi North 12.7 mph 18.4 mph N/A   Overcast
10:35 PM 24.8 °F 13.4 °F 10.4 °F 54% 30.44 in 10.0 mi North 12.7 mph 19.6 mph N/A   Overcast
10:55 PM 24.8 °F 12.4 °F 10.4 °F 54% 30.45 in 10.0 mi NNW 15.0 mph 21.9 mph N/A   Overcast
11:15 PM 24.8 °F 14.6 °F 12.2 °F 59% 30.45 in 10.0 mi NNW 10.4 mph 16.1 mph N/A   Overcast
11:35 PM 24.8 °F 14.0 °F 12.2 °F 59% 30.46 in 10.0 mi North 11.5 mph - N/A   Overcast
11:55 PM 24.8 °F 14.0 °F 12.2 °F 59% 30.46 in 10.0 mi North 11.5 mph - N/A   Overcast